createdAt,value
2018-03-11T00:02:14.646Z,9.01
2018-03-11T00:04:42.222Z,8.94
2018-03-11T00:07:09.936Z,8.81
2018-03-11T00:09:37.546Z,8.77
2018-03-11T00:12:05.138Z,8.78
2018-03-11T00:14:32.694Z,8.76
2018-03-11T00:17:00.276Z,8.80
2018-03-11T00:19:27.850Z,8.84
2018-03-11T00:21:55.466Z,8.88
2018-03-11T00:24:23.224Z,8.88
2018-03-11T00:26:50.940Z,8.86
2018-03-11T00:29:18.729Z,8.81
2018-03-11T00:31:46.294Z,8.82
2018-03-11T00:34:14.012Z,8.79
2018-03-11T00:36:41.622Z,8.80
2018-03-11T00:39:09.368Z,8.86
2018-03-11T00:41:36.929Z,8.90
2018-03-11T00:44:04.704Z,8.83
2018-03-11T00:46:32.366Z,8.84
2018-03-11T00:48:59.926Z,8.83
2018-03-11T00:51:27.662Z,8.84
2018-03-11T00:53:55.234Z,8.77
2018-03-11T00:56:22.994Z,8.76
2018-03-11T00:58:50.610Z,8.75
2018-03-11T01:01:18.185Z,8.80
2018-03-11T01:03:45.826Z,8.76
2018-03-11T01:06:13.782Z,8.79
2018-03-11T01:08:41.375Z,8.75
2018-03-11T01:11:09.006Z,8.73
2018-03-11T01:13:36.720Z,8.78
2018-03-11T01:16:04.331Z,8.73
2018-03-11T01:18:31.901Z,8.62
2018-03-11T01:20:59.481Z,8.65
2018-03-11T01:23:27.184Z,8.63
2018-03-11T01:25:54.743Z,8.56
2018-03-11T01:28:22.307Z,8.62
2018-03-11T01:30:50.017Z,8.65
2018-03-11T01:33:17.655Z,8.72
2018-03-11T01:35:45.267Z,8.76
2018-03-11T01:38:12.966Z,8.79
2018-03-11T01:40:40.610Z,8.73
2018-03-11T01:43:08.425Z,8.78
2018-03-11T01:45:35.989Z,8.84
2018-03-11T01:48:03.614Z,8.79
2018-03-11T01:50:31.390Z,8.74
2018-03-11T01:53:09.028Z,8.72
2018-03-11T01:55:36.615Z,8.71
2018-03-11T01:58:04.378Z,8.65
2018-03-11T02:00:31.975Z,8.64
2018-03-11T02:02:59.680Z,8.66
2018-03-11T02:05:27.532Z,8.66
2018-03-11T02:07:55.438Z,8.71
2018-03-11T02:10:23.153Z,8.63
2018-03-11T02:12:50.721Z,8.60
2018-03-11T02:15:18.506Z,8.55
2018-03-11T02:17:46.326Z,8.52
2018-03-11T02:20:13.890Z,8.56
2018-03-11T02:22:41.442Z,8.68
2018-03-11T02:25:09.152Z,8.74
2018-03-11T02:27:36.731Z,8.70
2018-03-11T02:30:04.615Z,8.71
2018-03-11T02:32:32.334Z,8.67
2018-03-11T02:34:59.930Z,8.58
2018-03-11T02:37:27.672Z,8.51
2018-03-11T02:39:55.249Z,8.52
2018-03-11T02:42:22.859Z,8.50
2018-03-11T02:44:50.584Z,8.56
2018-03-11T02:47:18.156Z,8.58
2018-03-11T02:49:45.964Z,8.58
2018-03-11T02:52:13.523Z,8.59
2018-03-11T02:54:41.142Z,8.60
2018-03-11T02:57:08.913Z,8.47
2018-03-11T02:59:36.522Z,8.42
2018-03-11T03:02:04.105Z,8.37
2018-03-11T03:04:31.657Z,8.35
2018-03-11T03:06:59.486Z,8.31
2018-03-11T03:09:27.082Z,8.29
2018-03-11T03:11:54.921Z,8.34
2018-03-11T03:14:22.742Z,8.40
2018-03-11T03:16:50.302Z,8.46
2018-03-11T03:19:17.924Z,8.52
2018-03-11T03:21:45.694Z,8.53
2018-03-11T03:24:13.412Z,8.47
2018-03-11T03:26:41.230Z,8.33
2018-03-11T03:29:08.791Z,8.29
2018-03-11T03:31:36.414Z,8.29
2018-03-11T03:34:04.077Z,8.32
2018-03-11T03:36:31.803Z,8.35
2018-03-11T03:38:59.371Z,8.38
2018-03-11T03:41:27.138Z,8.38
2018-03-11T03:43:54.957Z,8.36
2018-03-11T03:46:22.521Z,8.40
2018-03-11T03:48:50.078Z,8.45
2018-03-11T03:51:17.775Z,8.43
2018-03-11T03:53:45.335Z,8.40
2018-03-11T03:56:13.146Z,8.34
2018-03-11T03:58:40.741Z,8.36
2018-03-11T04:01:08.293Z,8.34
2018-03-11T04:03:35.862Z,8.25
2018-03-11T04:06:03.498Z,8.17
2018-03-11T04:08:31.222Z,8.13
2018-03-11T04:10:58.932Z,8.10
2018-03-11T04:13:26.563Z,8.06
2018-03-11T04:15:54.138Z,8.09
2018-03-11T04:18:21.908Z,8.14
2018-03-11T04:20:49.639Z,8.14
2018-03-11T04:23:17.197Z,8.07
2018-03-11T04:25:44.760Z,8.12
2018-03-11T04:28:12.365Z,8.16
2018-03-11T04:30:40.097Z,8.15
2018-03-11T04:33:07.727Z,8.10
2018-03-11T04:35:35.296Z,8.09
2018-03-11T04:38:02.875Z,8.01
2018-03-11T04:40:30.446Z,7.96
2018-03-11T04:42:58.001Z,7.93
2018-03-11T04:45:25.806Z,7.95
2018-03-11T04:47:53.361Z,7.88
2018-03-11T04:50:21.119Z,7.80
2018-03-11T04:52:48.691Z,7.77
2018-03-11T04:55:16.275Z,7.75
2018-03-11T04:57:43.901Z,7.69
2018-03-11T05:00:11.715Z,7.68
2018-03-11T05:02:39.278Z,7.69
2018-03-11T05:05:06.882Z,7.68
2018-03-11T05:07:34.666Z,7.67
2018-03-11T05:10:02.370Z,7.71
2018-03-11T05:12:29.989Z,7.74
2018-03-11T05:14:57.720Z,7.73
2018-03-11T05:17:25.282Z,7.75
2018-03-11T05:19:52.841Z,7.76
2018-03-11T05:22:20.476Z,7.85
2018-03-11T05:24:48.044Z,7.96
2018-03-11T05:27:15.603Z,8.14
2018-03-11T05:29:43.162Z,8.54
2018-03-11T05:32:10.945Z,8.83
2018-03-11T05:34:38.766Z,9.33
2018-03-11T05:37:06.583Z,10.65
2018-03-11T05:39:34.142Z,12.53
2018-03-11T05:42:01.918Z,14.27
2018-03-11T05:44:29.508Z,15.33
2018-03-11T05:46:57.126Z,16.29
2018-03-11T05:49:24.839Z,17.22
2018-03-11T05:51:52.555Z,17.98
2018-03-11T05:54:20.131Z,19.01
2018-03-11T05:56:47.695Z,19.72
2018-03-11T05:59:15.315Z,20.04
2018-03-11T06:01:42.874Z,20.38
2018-03-11T06:04:10.680Z,20.05
2018-03-11T06:06:38.245Z,19.29
2018-03-11T06:09:05.816Z,18.55
2018-03-11T06:11:33.446Z,17.88
2018-03-11T06:14:01.022Z,17.16
2018-03-11T06:16:28.581Z,16.66
2018-03-11T06:18:56.149Z,16.28
2018-03-11T06:21:23.714Z,15.87
2018-03-11T06:23:51.352Z,15.30
2018-03-11T06:26:19.140Z,14.81
2018-03-11T06:28:46.703Z,14.55
2018-03-11T06:31:14.476Z,14.48
2018-03-11T06:33:42.034Z,14.66
2018-03-11T06:36:09.913Z,15.17
2018-03-11T06:38:37.731Z,16.26
2018-03-11T06:41:05.298Z,17.35
2018-03-11T06:43:32.874Z,18.46
2018-03-11T06:46:00.429Z,19.97
2018-03-11T06:48:28.050Z,20.88
2018-03-11T06:50:55.606Z,21.54
2018-03-11T06:53:23.161Z,22.98
2018-03-11T06:55:50.734Z,24.30
2018-03-11T06:58:18.308Z,25.12
2018-03-11T07:00:45.940Z,26.02
2018-03-11T07:03:13.691Z,26.59
2018-03-11T07:05:41.427Z,27.39
2018-03-11T07:08:09.002Z,27.81
2018-03-11T07:10:36.763Z,27.88
2018-03-11T07:13:04.398Z,27.66
2018-03-11T07:15:31.970Z,27.57
2018-03-11T07:17:59.557Z,27.56
2018-03-11T07:20:27.179Z,27.39
2018-03-11T07:22:54.953Z,27.78
2018-03-11T07:25:22.510Z,27.94
2018-03-11T07:27:50.389Z,27.68
2018-03-11T07:30:18.270Z,27.84
2018-03-11T07:32:45.864Z,27.58
2018-03-11T07:35:13.474Z,27.60
2018-03-11T07:37:41.052Z,27.87
2018-03-11T07:40:08.602Z,28.22
2018-03-11T07:42:36.397Z,28.27
2018-03-11T07:45:04.217Z,28.31
2018-03-11T07:47:31.815Z,28.47
2018-03-11T07:49:59.654Z,28.97
2018-03-11T07:52:27.215Z,28.91
2018-03-11T07:54:54.777Z,28.90
2018-03-11T07:57:22.606Z,29.40
2018-03-11T07:59:50.323Z,29.42
2018-03-11T08:02:17.882Z,28.26
2018-03-11T08:04:45.519Z,26.77
2018-03-11T08:07:13.082Z,26.82
2018-03-11T08:09:40.796Z,27.04
2018-03-11T08:12:08.613Z,27.58
2018-03-11T08:14:36.220Z,27.93
2018-03-11T08:17:03.952Z,28.80
2018-03-11T08:19:31.561Z,29.73
2018-03-11T08:21:59.285Z,30.59
2018-03-11T08:24:26.837Z,30.36
2018-03-11T08:26:54.839Z,29.58
2018-03-11T08:29:22.384Z,30.70
2018-03-11T08:31:49.959Z,31.41
2018-03-11T08:34:17.590Z,31.70
2018-03-11T08:36:45.394Z,31.56
2018-03-11T08:39:12.969Z,31.11
2018-03-11T08:41:40.796Z,31.43
2018-03-11T08:44:08.347Z,31.87
2018-03-11T08:46:36.168Z,31.51
2018-03-11T08:49:03.795Z,31.47
2018-03-11T08:51:31.346Z,30.63
2018-03-11T08:53:58.910Z,30.32
2018-03-11T08:56:26.514Z,29.94
2018-03-11T08:58:54.069Z,29.98
2018-03-11T09:01:21.875Z,29.74
2018-03-11T09:03:49.486Z,29.13
2018-03-11T09:06:17.211Z,28.81
2018-03-11T09:08:44.762Z,28.61
2018-03-11T09:11:12.547Z,28.83
2018-03-11T09:13:40.115Z,28.34
2018-03-11T09:16:07.673Z,28.54
2018-03-11T09:18:35.292Z,28.59
2018-03-11T09:21:03.017Z,28.78
2018-03-11T09:23:30.573Z,29.11
2018-03-11T09:25:58.327Z,28.35
2018-03-11T09:28:25.882Z,28.35
2018-03-11T09:30:53.438Z,28.55
2018-03-11T09:33:21.308Z,28.70
2018-03-11T09:35:48.917Z,28.92
2018-03-11T09:38:16.472Z,29.12
2018-03-11T09:40:44.136Z,29.89
2018-03-11T09:43:11.846Z,30.09
2018-03-11T09:45:39.565Z,30.01
2018-03-11T09:48:07.198Z,29.55
2018-03-11T09:50:34.897Z,28.32
2018-03-11T09:53:02.454Z,28.20
2018-03-11T09:55:30.067Z,28.36
2018-03-11T09:57:57.625Z,27.40
2018-03-11T10:00:25.187Z,26.76
2018-03-11T10:02:52.789Z,25.76
2018-03-11T10:05:20.540Z,26.15
2018-03-11T10:07:48.151Z,26.61
2018-03-11T10:10:15.977Z,26.44
2018-03-11T10:12:43.535Z,26.42
2018-03-11T10:15:11.095Z,26.33
2018-03-11T10:17:38.930Z,26.22
2018-03-11T10:20:06.498Z,25.61
2018-03-11T10:22:34.272Z,25.76
2018-03-11T10:25:01.895Z,26.31
2018-03-11T10:27:29.445Z,26.77
2018-03-11T10:29:57.007Z,27.16
2018-03-11T10:32:24.630Z,26.86
2018-03-11T10:34:52.186Z,27.13
2018-03-11T10:37:19.777Z,27.34
2018-03-11T10:39:47.593Z,27.75
2018-03-11T10:42:15.306Z,28.16
2018-03-11T10:44:42.870Z,27.76
2018-03-11T10:47:10.627Z,26.98
2018-03-11T10:49:38.365Z,26.15
2018-03-11T10:52:05.930Z,25.86
2018-03-11T10:54:33.541Z,26.03
2018-03-11T10:57:01.279Z,26.40
2018-03-11T10:59:28.830Z,25.90
2018-03-11T11:02:02.006Z,26.14
2018-03-11T11:04:42.546Z,26.67
2018-03-11T11:07:10.154Z,25.87
2018-03-11T11:09:37.709Z,25.74
2018-03-11T11:12:05.493Z,26.24
2018-03-11T11:14:33.419Z,26.02
2018-03-11T11:17:00.995Z,25.70
2018-03-11T11:19:28.576Z,25.47
2018-03-11T11:21:56.198Z,25.98
2018-03-11T11:24:23.767Z,26.07
2018-03-11T11:26:51.334Z,25.93
2018-03-11T11:29:19.120Z,25.95
2018-03-11T11:31:46.683Z,26.50
2018-03-11T11:34:14.432Z,26.31
2018-03-11T11:36:42.272Z,26.19
2018-03-11T11:39:09.830Z,25.93
2018-03-11T11:41:37.608Z,25.86
2018-03-11T11:44:05.238Z,25.84
2018-03-11T11:46:32.824Z,25.91
2018-03-11T11:49:00.453Z,26.57
2018-03-11T11:51:28.105Z,27.45
2018-03-11T11:53:55.898Z,26.62
2018-03-11T11:56:23.482Z,26.38
2018-03-11T11:58:51.090Z,26.99
2018-03-11T12:01:18.853Z,27.74
2018-03-11T12:03:46.411Z,28.50
2018-03-11T12:06:14.030Z,29.07
2018-03-11T12:08:41.584Z,29.31
2018-03-11T12:11:09.142Z,29.04
2018-03-11T12:13:36.941Z,27.62
2018-03-11T12:16:04.760Z,27.77
2018-03-11T12:18:32.316Z,27.96
2018-03-11T12:21:00.096Z,28.65
2018-03-11T12:23:27.914Z,28.16
2018-03-11T12:25:55.461Z,28.04
2018-03-11T12:28:23.116Z,27.95
2018-03-11T12:30:50.668Z,28.16
2018-03-11T12:33:18.237Z,28.63
2018-03-11T12:35:45.858Z,29.47
2018-03-11T12:38:13.417Z,28.99
2018-03-11T12:40:41.085Z,28.19
2018-03-11T12:43:08.858Z,27.51
2018-03-11T12:45:36.417Z,26.99
2018-03-11T12:48:03.978Z,26.30
2018-03-11T12:50:31.784Z,25.67
2018-03-11T12:52:59.341Z,25.24
2018-03-11T12:55:26.902Z,25.28
2018-03-11T12:57:54.527Z,25.57
2018-03-11T13:00:22.252Z,26.48
2018-03-11T13:02:49.969Z,26.97
2018-03-11T13:05:17.584Z,27.48
2018-03-11T13:07:45.161Z,28.35
2018-03-11T13:10:12.718Z,28.90
2018-03-11T13:12:40.331Z,29.17
2018-03-11T13:15:08.091Z,29.48
2018-03-11T13:17:35.656Z,29.83
2018-03-11T13:20:15.035Z,29.31
2018-03-11T13:22:42.590Z,29.47
2018-03-11T13:25:10.143Z,29.52
2018-03-11T13:27:37.828Z,29.58
2018-03-11T13:30:05.639Z,29.52
2018-03-11T13:32:45.022Z,29.40
2018-03-11T13:35:12.817Z,29.57
2018-03-11T13:37:40.505Z,29.92
2018-03-11T13:40:19.890Z,30.57
2018-03-11T13:42:47.451Z,31.20
2018-03-11T13:45:26.826Z,31.44
2018-03-11T13:47:54.459Z,31.51
2018-03-11T13:50:22.207Z,30.84
2018-03-11T13:55:55.290Z,31.03
2018-03-11T13:58:34.626Z,31.67
2018-03-11T14:01:02.187Z,31.85
2018-03-11T14:03:29.755Z,32.45
2018-03-11T14:05:57.373Z,32.33
2018-03-11T14:08:24.932Z,32.21
2018-03-11T14:10:52.496Z,31.03
2018-03-11T14:13:20.342Z,30.63
2018-03-11T14:15:48.162Z,30.34
2018-03-11T14:18:15.979Z,30.14
2018-03-11T14:20:43.809Z,29.62
2018-03-11T14:23:11.616Z,29.91
2018-03-11T14:25:39.433Z,29.44
2018-03-11T14:28:07.256Z,29.28
2018-03-11T14:30:34.882Z,29.39
2018-03-11T14:33:02.447Z,29.41
2018-03-11T14:35:30.081Z,29.53
2018-03-11T14:37:57.794Z,29.53
2018-03-11T14:40:25.350Z,29.73
2018-03-11T14:42:52.970Z,29.63
2018-03-11T14:45:20.559Z,29.92
2018-03-11T14:47:48.115Z,29.28
2018-03-11T14:50:15.727Z,29.10
2018-03-11T14:52:43.324Z,28.77
2018-03-11T14:55:10.888Z,28.49
2018-03-11T14:57:38.516Z,28.11
2018-03-11T15:00:06.142Z,26.76
2018-03-11T15:02:33.913Z,25.88
2018-03-11T15:05:01.512Z,25.55
2018-03-11T15:07:29.070Z,25.47
2018-03-11T15:09:56.837Z,25.11
2018-03-11T15:12:24.460Z,25.22
2018-03-11T15:14:52.025Z,25.16
2018-03-11T15:17:19.573Z,24.23
2018-03-11T15:19:47.199Z,23.59
2018-03-11T15:22:14.831Z,23.44
2018-03-11T15:24:42.394Z,23.01
2018-03-11T15:27:10.184Z,22.54
2018-03-11T15:29:37.738Z,22.37
2018-03-11T15:32:05.330Z,22.27
2018-03-11T15:34:32.944Z,22.10
2018-03-11T15:37:00.498Z,21.64
2018-03-11T15:39:28.057Z,21.27
2018-03-11T15:41:55.955Z,20.74
2018-03-11T15:44:23.542Z,20.13
2018-03-11T15:46:51.105Z,19.94
2018-03-11T15:49:18.731Z,19.80
2018-03-11T15:51:46.446Z,19.64
2018-03-11T15:54:14.021Z,19.41
2018-03-11T15:56:41.649Z,19.26
2018-03-11T15:59:09.397Z,19.05
2018-03-11T16:01:37.134Z,18.90
2018-03-11T16:04:04.787Z,18.72
2018-03-11T16:06:32.571Z,18.60
2018-03-11T16:09:00.390Z,18.43
2018-03-11T16:11:28.005Z,18.31
2018-03-11T16:13:55.797Z,18.19
2018-03-11T16:16:23.357Z,18.01
2018-03-11T16:18:51.163Z,17.92
2018-03-11T16:21:18.727Z,17.88
2018-03-11T16:23:46.501Z,17.76
2018-03-11T16:26:14.316Z,17.64
2018-03-11T16:28:41.886Z,17.52
2018-03-11T16:31:09.450Z,17.35
2018-03-11T16:33:37.150Z,17.24
2018-03-11T16:36:04.726Z,17.31
2018-03-11T16:38:32.287Z,17.22
2018-03-11T16:41:00.124Z,17.20
2018-03-11T16:43:27.686Z,17.15
2018-03-11T16:45:55.442Z,17.01
2018-03-11T16:48:23.063Z,16.96
2018-03-11T16:50:50.687Z,16.88
2018-03-11T16:53:18.430Z,16.77
2018-03-11T16:55:46.058Z,16.68
2018-03-11T16:58:13.851Z,16.63
2018-03-11T17:00:41.518Z,16.59
2018-03-11T17:03:09.168Z,16.54
2018-03-11T17:05:36.904Z,16.47
2018-03-11T17:08:04.504Z,16.42
2018-03-11T17:10:32.126Z,16.34
2018-03-11T17:12:59.702Z,16.25
2018-03-11T17:15:29.476Z,16.18
2018-03-11T17:17:57.305Z,16.20
2018-03-11T17:20:25.121Z,16.16
2018-03-11T17:22:52.841Z,16.08
2018-03-11T17:25:20.454Z,15.99
2018-03-11T17:27:48.038Z,15.95
2018-03-11T17:30:15.623Z,15.82
2018-03-11T17:32:43.411Z,15.79
2018-03-11T17:35:10.990Z,15.73
2018-03-11T17:37:38.564Z,15.64
2018-03-11T17:40:06.217Z,15.66
2018-03-11T17:42:33.796Z,15.69
2018-03-11T17:45:01.363Z,15.63
2018-03-11T17:47:28.986Z,15.55
2018-03-11T17:49:56.636Z,15.45
2018-03-11T17:52:24.234Z,15.37
2018-03-11T17:54:51.866Z,15.31
2018-03-11T17:57:19.481Z,15.23
2018-03-11T17:59:47.210Z,15.08
2018-03-11T18:02:15.026Z,15.00
2018-03-11T18:04:42.606Z,14.98
2018-03-11T18:07:10.191Z,14.95
2018-03-11T18:09:38.080Z,14.88
2018-03-11T18:12:05.654Z,14.80
2018-03-11T18:14:33.227Z,14.79
2018-03-11T18:17:00.862Z,14.82
2018-03-11T18:19:28.653Z,14.77
2018-03-11T18:21:56.242Z,14.71
2018-03-11T18:24:24.008Z,14.70
2018-03-11T18:26:51.586Z,14.60
2018-03-11T18:29:19.178Z,14.59
2018-03-11T18:31:46.836Z,14.55
2018-03-11T18:34:14.404Z,14.59
2018-03-11T18:36:42.178Z,14.55
2018-03-11T18:39:09.809Z,14.50
2018-03-11T18:41:37.374Z,14.40
2018-03-11T18:44:04.982Z,14.29
2018-03-11T18:46:32.605Z,14.18
2018-03-11T18:49:00.162Z,14.06
2018-03-11T18:51:27.776Z,14.01
2018-03-11T18:53:55.418Z,14.07
2018-03-11T18:56:23.225Z,14.04
2018-03-11T18:58:50.793Z,13.90
2018-03-11T19:01:18.685Z,13.93
2018-03-11T19:03:46.301Z,13.95
2018-03-11T19:06:14.094Z,13.83
2018-03-11T19:08:41.762Z,13.75
2018-03-11T19:11:09.336Z,13.72
2018-03-11T19:13:36.893Z,13.70
2018-03-11T19:16:04.721Z,13.67
2018-03-11T19:18:32.282Z,13.62
2018-03-11T19:20:59.842Z,13.56
2018-03-11T19:23:27.824Z,13.43
2018-03-11T19:25:55.641Z,13.32
2018-03-11T19:28:23.487Z,13.30
2018-03-11T19:30:51.215Z,13.29
2018-03-11T19:33:18.797Z,13.24
2018-03-11T19:35:46.380Z,13.16
2018-03-11T19:38:14.021Z,13.14
2018-03-11T19:40:41.848Z,13.10
2018-03-11T19:43:09.453Z,13.04
2018-03-11T19:45:37.086Z,13.01
2018-03-11T19:48:04.658Z,12.98
2018-03-11T19:50:32.388Z,12.92
2018-03-11T19:53:00.086Z,12.89
2018-03-11T19:55:27.821Z,12.86
2018-03-11T19:57:55.415Z,12.79
2018-03-11T20:00:23.358Z,12.71
2018-03-11T20:02:51.071Z,12.66
2018-03-11T20:05:18.831Z,12.62
2018-03-11T20:07:46.486Z,12.50
2018-03-11T20:10:14.062Z,12.44
2018-03-11T20:12:41.776Z,12.42
2018-03-11T20:15:09.422Z,12.43
2018-03-11T20:17:36.987Z,12.48
2018-03-11T20:20:04.766Z,12.51
2018-03-11T20:22:32.757Z,12.53
2018-03-11T20:25:00.577Z,12.53
2018-03-11T20:27:28.395Z,12.51
2018-03-11T20:29:56.254Z,12.45
2018-03-11T20:32:23.810Z,12.49
2018-03-11T20:34:51.511Z,12.47
2018-03-11T20:37:19.476Z,12.42
2018-03-11T20:39:47.287Z,12.51
2018-03-11T20:42:15.031Z,12.54
2018-03-11T20:44:42.653Z,12.56
2018-03-11T20:47:10.329Z,12.59
2018-03-11T20:49:37.904Z,12.56
2018-03-11T20:52:05.777Z,12.53
2018-03-11T20:54:33.345Z,12.58
2018-03-11T20:57:00.910Z,12.68
2018-03-11T20:59:28.537Z,12.76
2018-03-11T21:01:56.234Z,12.80
2018-03-11T21:04:23.968Z,12.84
2018-03-11T21:06:51.786Z,12.84
2018-03-11T21:09:19.604Z,12.86
2018-03-11T21:11:47.203Z,12.86
2018-03-11T21:14:14.932Z,12.84
2018-03-11T21:16:42.507Z,12.84
2018-03-11T21:19:10.260Z,12.83
2018-03-11T21:21:38.096Z,12.82
2018-03-11T21:24:05.914Z,12.81
2018-03-11T21:26:33.732Z,12.80
2018-03-11T21:29:01.361Z,12.80
2018-03-11T21:31:28.945Z,12.78
2018-03-11T21:33:56.764Z,12.74
2018-03-11T21:36:24.402Z,12.72
2018-03-11T21:38:51.992Z,12.82
2018-03-11T21:41:19.576Z,12.98
2018-03-11T21:43:47.359Z,13.07
2018-03-11T21:46:14.934Z,13.11
2018-03-11T21:48:42.506Z,13.11
2018-03-11T21:51:10.134Z,13.13
2018-03-11T21:53:38.040Z,13.12
2018-03-11T21:56:05.628Z,13.06
2018-03-11T21:58:33.247Z,13.07
2018-03-11T22:01:00.810Z,13.11
2018-03-11T22:03:28.374Z,13.10
2018-03-11T22:05:56.222Z,13.11
2018-03-11T22:08:24.039Z,13.12
2018-03-11T22:10:51.598Z,13.13
2018-03-11T22:13:19.214Z,13.18
2018-03-11T22:15:46.780Z,13.15
2018-03-11T22:18:14.361Z,13.12
2018-03-11T22:20:42.099Z,13.11
2018-03-11T22:23:09.849Z,13.08
2018-03-11T22:25:37.426Z,13.07
2018-03-11T22:28:05.285Z,13.07
2018-03-11T22:30:33.002Z,13.06
2018-03-11T22:33:00.634Z,13.02
2018-03-11T22:35:28.305Z,12.97
2018-03-11T22:37:55.881Z,12.97
2018-03-11T22:40:23.437Z,12.91
2018-03-11T22:42:51.068Z,12.94
2018-03-11T22:45:18.790Z,12.91
2018-03-11T22:47:46.406Z,12.95
2018-03-11T22:50:14.037Z,13.04
2018-03-11T22:52:41.868Z,13.08
2018-03-11T22:55:09.690Z,13.12
2018-03-11T22:57:37.389Z,13.11
2018-03-11T23:00:05.220Z,13.12
2018-03-11T23:02:32.778Z,13.13
2018-03-11T23:05:00.459Z,13.08
2018-03-11T23:07:28.011Z,13.04
2018-03-11T23:09:55.576Z,13.04
2018-03-11T23:12:23.241Z,12.98
2018-03-11T23:14:51.027Z,12.95
2018-03-11T23:17:18.847Z,12.87
2018-03-11T23:19:46.466Z,12.73
2018-03-11T23:22:14.037Z,12.62
2018-03-11T23:24:41.598Z,12.50
2018-03-11T23:27:09.420Z,12.37
2018-03-11T23:29:36.982Z,12.26
2018-03-11T23:32:04.554Z,12.22
2018-03-11T23:34:32.371Z,12.15
2018-03-11T23:36:59.939Z,12.07
2018-03-11T23:39:27.508Z,12.03
2018-03-11T23:41:55.271Z,12.07
2018-03-11T23:44:23.044Z,12.03
2018-03-11T23:46:50.613Z,12.04
2018-03-11T23:49:18.234Z,12.07
2018-03-11T23:51:45.804Z,12.07
2018-03-11T23:54:13.370Z,12.02
2018-03-11T23:56:41.197Z,12.00
2018-03-11T23:59:09.052Z,12.01
